EDT,Max TemperatureF,Mean TemperatureF,Min TemperatureF,Max Dew PointF,MeanDew PointF,Min DewpointF,Max Humidity, Mean Humidity, Min Humidity, Max Sea Level PressureIn, Mean Sea Level PressureIn, Min Sea Level PressureIn, Max VisibilityMiles, Mean VisibilityMiles, Min VisibilityMiles, Max Wind SpeedMPH, Mean Wind SpeedMPH, Max Gust SpeedMPH,PrecipitationIn, CloudCover, Events, WindDirDegrees
2012-8-1,79,71,62,64,62,59,100,76,52,29.98,29.88,29.83,10,7,2,13,6,16,0.55,7,Rain,25
2012-8-2,79,73,66,68,66,64,100,86,71,29.89,29.86,29.81,10,7,1,17,6,22,T,7,,183
2012-8-3,87,76,64,69,66,63,100,74,48,30.05,29.92,29.87,10,6,0,16,6,25,0.00,6,Fog,187
2012-8-4,87,74,61,65,62,60,93,68,42,30.22,30.18,30.07,10,10,10,13,5,16,0.00,2,,270
2012-8-5,82,73,63,71,68,62,100,85,69,30.22,30.07,29.86,10,8,0,23,8,31,0.00,6,Fog,177
2012-8-6,82,71,59,70,60,53,100,70,39,29.96,29.88,29.82,10,10,9,18,9,24,0.00,4,,277
2012-8-7,82,67,52,59,55,51,100,71,42,29.99,29.96,29.91,10,10,10,15,3,17,0.00,1,,202
2012-8-8,87,72,56,63,60,56,100,67,34,29.97,29.95,29.91,10,7,0,15,3,18,0.00,3,Fog,196
2012-8-9,83,72,60,67,65,62,100,78,55,29.98,29.95,29.91,10,7,0,17,5,21,0.00,5,Fog-Thunderstorm,181
2012-8-10,75,70,65,67,66,63,100,87,74,29.99,29.97,29.94,10,8,2,15,6,20,0.09,8,Rain,162
2012-8-11,70,68,66,68,66,64,100,95,90,29.97,29.92,29.87,10,4,0,12,6,15,0.15,8,Fog-Rain,48
2012-8-12,76,72,67,70,68,66,100,94,87,29.96,29.92,29.86,10,7,0,14,4,18,0.01,8,Fog,173
2012-8-13,85,76,67,69,66,62,100,74,48,29.91,29.88,29.84,10,8,2,12,5,16,0.00,6,,202
2012-8-14,85,75,64,66,63,59,100,72,43,29.91,29.88,29.85,10,10,6,13,3,15,0.00,6,,221
2012-8-15,82,73,63,66,63,56,100,77,54,29.90,29.88,29.86,10,10,8,17,4,21,T,6,Thunderstorm,189
2012-8-16,68,65,61,66,63,61,100,94,87,29.90,29.81,29.73,10,6,1,20,5,26,1.50,8,Rain,28
2012-8-17,81,71,61,63,61,58,93,69,45,29.80,29.76,29.73,10,10,3,14,6,18,0.05,5,Rain,249
2012-8-18,76,69,62,64,62,57,100,77,54,29.88,29.83,29.77,10,10,8,7,2,10,T,6,Rain,241
2012-8-19,79,68,56,59,55,52,93,66,39,29.96,29.91,29.87,10,10,10,12,4,15,0.00,5,,324
2012-8-20,79,66,52,59,56,50,100,70,39,29.91,29.88,29.83,10,10,10,14,2,22,0.00,2,Fog,193
2012-8-21,77,67,56,60,57,54,100,72,43,30.07,29.96,29.88,10,10,10,8,1,16,0.02,6,Rain,305
2012-8-22,79,64,49,56,53,50,100,70,39,30.14,30.10,30.08,10,10,2,16,2,22,0.00,2,Fog,183
2012-8-23,83,69,55,63,59,55,100,70,40,30.10,30.08,30.01,10,6,0,23,4,29,0.01,5,Fog-Rain,213
2012-8-24,81,68,54,60,55,47,100,66,32,30.25,30.17,30.09,10,10,8,13,2,16,0.00,2,,326
2012-8-25,80,66,52,61,57,53,100,76,52,30.34,30.30,30.25,10,10,10,15,3,18,0.00,5,,175
2012-8-26,81,71,60,64,62,59,100,77,54,30.33,30.27,30.20,10,8,1,16,6,20,0.00,2,,186
2012-8-27,82,72,61,65,62,58,100,76,51,30.19,30.05,29.87,10,10,10,18,8,25,0.01,3,,180
2012-8-28,80,68,56,68,63,46,100,77,53,29.85,29.75,29.64,10,9,4,29,6,41,0.21,6,Rain-Thunderstorm,242
2012-8-29,76,64,51,52,47,43,71,55,38,29.88,29.84,29.78,10,10,10,18,7,24,0.00,2,,282
2012-8-30,78,68,57,56,51,47,78,58,37,29.90,29.86,29.81,10,10,10,17,7,24,0.00,2,,231
2012-8-31,77,70,62,63,58,54,93,71,49,29.82,29.76,29.69,10,10,10,13,7,18,T,6,,217